Terminal Aerodrome Forecast
Issued by NWS

Home | Current Version | Previous Version | Text Only | Print | Product List | Glossary On
Versions: 1 2 3 4 5 6 7 8 9 10 11 12 13 14 15 16 17 18 19
380
FTUS43 KILX 201453 AAB
TAFBMI
TAF AMD
KBMI 201453Z 2015/2112 02012G22KT P6SM -RA VCTS SCT040CB BKN070
      TEMPO 2015/2016 6SM TSRA BR SCT015CB BKN040
     FM201600 23007KT P6SM BKN250=

USA.gov is the U.S. government's official web portal to all federal, state and local government web resources and services.